Time;durP1;ratioP1;P1;durP2;ratioP2;P2;SDS_P1;SDS_P2;PMS_P1;PMS_P2;Temp;Humidity;BMP_temperature;BMP_pressure;BME280_temperature;BME280_humidity;BME280_pressure;Samples;Min_cycle;Max_cycle;Signal;HPM_P1;HPM_P2
2023/08/18 00:00:28;;;;;;;10.00;7.30;;;;;;;22.85;61.56;100884.63;104093;275;39104;-73
2023/08/18 00:03:23;;;;;;;9.70;7.00;;;;;;;22.79;61.95;100889.57;104160;275;38320;-72
2023/08/18 00:06:02;;;;;;;8.70;7.20;;;;;;;22.74;62.18;100892.52;104157;275;39240;-73
2023/08/18 00:08:39;;;;;;;12.30;7.60;;;;;;;22.68;62.31;100891.71;104111;275;38346;-75
2023/08/18 00:11:15;;;;;;;7.60;6.40;;;;;;;22.64;62.54;100887.22;104034;275;39931;-73
2023/08/18 00:13:49;;;;;;;8.70;7.40;;;;;;;22.61;62.68;100886.02;104181;264;38515;-73
2023/08/18 00:16:23;;;;;;;10.20;7.00;;;;;;;22.57;62.75;100884.71;104143;275;38353;-74
2023/08/18 00:18:57;;;;;;;8.80;7.30;;;;;;;22.53;62.88;100885.23;104127;275;39522;-74
2023/08/18 00:21:31;;;;;;;8.50;6.90;;;;;;;22.48;63.01;100882.25;104212;275;39612;-74
2023/08/18 00:24:09;;;;;;;11.30;7.70;;;;;;;22.45;63.10;100880.58;104033;276;39444;-72
2023/08/18 00:26:44;;;;;;;10.70;7.50;;;;;;;22.44;63.19;100880.32;104174;275;38251;-73
2023/08/18 00:29:18;;;;;;;8.80;7.30;;;;;;;22.41;63.45;100892.27;104182;275;39559;-73
2023/08/18 00:31:52;;;;;;;10.40;8.10;;;;;;;22.38;63.63;100907.06;104154;275;38170;-73
2023/08/18 00:34:28;;;;;;;8.60;7.30;;;;;;;22.35;63.69;100918.98;104132;275;39639;-73
2023/08/18 00:37:02;;;;;;;11.20;7.10;;;;;;;22.33;64.04;100930.52;104149;275;38326;-73
2023/08/18 00:39:39;;;;;;;13.10;7.40;;;;;;;22.33;64.33;100941.63;104129;275;38619;-74
2023/08/18 00:42:13;;;;;;;8.20;6.90;;;;;;;22.33;64.51;100938.42;104167;275;38527;-73
2023/08/18 00:44:48;;;;;;;11.60;7.10;;;;;;;22.34;64.54;100955.59;104169;274;38843;-74
2023/08/18 00:47:22;;;;;;;9.10;7.20;;;;;;;22.35;64.75;100987.29;104165;275;39526;-73
2023/08/18 00:50:00;;;;;;;7.20;6.40;;;;;;;22.38;64.41;101002.39;104131;268;38278;-75
2023/08/18 00:52:35;;;;;;;8.50;7.10;;;;;;;22.44;64.17;101014.90;104168;275;38481;-74
2023/08/18 00:55:11;;;;;;;8.50;7.20;;;;;;;22.51;64.22;101018.77;104115;263;39676;-75
2023/08/18 00:57:45;;;;;;;11.30;7.40;;;;;;;22.59;64.39;101014.73;104122;275;39626;-73
2023/08/18 01:00:23;;;;;;;9.50;8.10;;;;;;;22.66;64.80;100994.14;104122;275;38547;-74
2023/08/18 01:02:57;;;;;;;13.40;8.60;;;;;;;22.73;64.91;100978.86;104148;267;39407;-74
2023/08/18 01:05:32;;;;;;;11.40;7.80;;;;;;;22.78;65.34;100981.77;104119;275;38254;-72
2023/08/18 01:08:06;;;;;;;9.50;7.80;;;;;;;22.81;66.04;100984.02;104204;275;38397;-72
2023/08/18 01:10:54;;;;;;;9.70;7.80;;;;;;;22.82;66.86;100976.84;104167;275;39152;-72
2023/08/18 01:13:38;;;;;;;18.40;9.80;;;;;;;22.82;68.42;100982.90;104298;275;38481;-74
2023/08/18 01:16:19;;;;;;;17.70;7.70;;;;;;;22.75;70.23;100927.41;104179;275;39444;-74
2023/08/18 01:18:54;;;;;;;9.90;7.10;;;;;;;22.64;70.39;100930.93;104155;275;39648;-74
2023/08/18 01:21:28;;;;;;;12.90;7.30;;;;;;;22.57;70.86;100919.62;104161;275;39716;-74
2023/08/18 01:24:06;;;;;;;9.90;6.80;;;;;;;22.50;71.35;100924.08;104178;275;37951;-74
2023/08/18 01:26:41;;;;;;;12.00;7.20;;;;;;;22.40;72.15;100925.92;104126;275;40003;-74
2023/08/18 01:29:19;;;;;;;10.20;7.40;;;;;;;22.31;72.97;100943.34;104057;276;38779;-75
2023/08/18 01:32:01;;;;;;;13.70;7.70;;;;;;;22.23;74.09;100956.08;104176;275;38990;-74
2023/08/18 01:34:36;;;;;;;12.60;7.70;;;;;;;22.15;74.68;100966.10;104168;275;39678;-75
2023/08/18 01:37:10;;;;;;;7.50;6.60;;;;;;;22.11;75.15;100978.27;104179;275;39612;-74
2023/08/18 01:39:44;;;;;;;9.40;7.60;;;;;;;22.08;75.74;100984.89;104137;275;38214;-74
2023/08/18 01:42:18;;;;;;;10.70;6.70;;;;;;;22.04;76.09;101002.05;104188;275;38737;-75
2023/08/18 01:45:03;;;;;;;9.80;6.70;;;;;;;21.97;76.59;101026.06;104110;275;38496;-74
2023/08/18 01:47:39;;;;;;;10.80;6.10;;;;;;;21.93;77.29;101036.34;104057;275;174665;-74
2023/08/18 01:50:13;;;;;;;9.00;5.30;;;;;;;21.90;77.25;101047.91;104115;275;38333;-74
2023/08/18 01:52:47;;;;;;;7.00;5.10;;;;;;;21.87;77.36;101044.55;104092;275;174672;-74
2023/08/18 01:55:21;;;;;;;8.20;4.40;;;;;;;21.85;77.18;101032.14;104134;275;39463;-74
2023/08/18 01:57:55;;;;;;;7.30;5.30;;;;;;;21.79;77.21;101023.69;104073;275;38506;-74
2023/08/18 02:00:29;;;;;;;5.20;4.50;;;;;;;21.75;77.56;101005.70;104146;275;38978;-76
2023/08/18 02:03:03;;;;;;;5.10;4.50;;;;;;;21.76;77.87;101001.05;104156;275;39947;-74
2023/08/18 02:05:40;;;;;;;6.90;4.40;;;;;;;21.74;77.92;100989.78;104142;275;39667;-74
2023/08/18 02:08:15;;;;;;;6.90;5.40;;;;;;;21.69;77.90;100984.85;104209;275;39666;-74
2023/08/18 02:10:49;;;;;;;6.20;5.10;;;;;;;21.61;78.23;100987.73;104152;275;38439;-74
2023/08/18 02:13:26;;;;;;;8.10;5.20;;;;;;;21.55;78.81;100999.89;103564;264;729655;-74
2023/08/18 02:16:01;;;;;;;5.60;4.70;;;;;;;21.55;79.70;100999.04;104131;275;38296;-74
2023/08/18 02:18:34;;;;;;;7.10;5.10;;;;;;;21.56;79.89;101003.57;104034;275;40328;-74
2023/08/18 02:21:08;;;;;;;5.90;4.80;;;;;;;21.58;79.77;101003.95;104154;275;38228;-74
2023/08/18 02:23:43;;;;;;;7.40;4.90;;;;;;;21.62;79.83;101000.10;104173;275;38527;-73
2023/08/18 02:26:17;;;;;;;4.80;4.00;;;;;;;21.64;79.76;100986.78;104156;275;38521;-74
2023/08/18 02:28:51;;;;;;;5.80;4.90;;;;;;;21.62;79.24;100975.61;104129;275;39897;-74
2023/08/18 02:31:25;;;;;;;6.20;5.00;;;;;;;21.63;79.20;100971.10;104175;275;39678;-74
2023/08/18 02:33:59;;;;;;;6.60;5.00;;;;;;;21.62;79.13;100969.37;104123;275;39415;-75
2023/08/18 02:36:38;;;;;;;5.80;4.40;;;;;;;21.56;79.21;100980.48;104239;275;38662;-75
2023/08/18 02:39:14;;;;;;;5.40;4.80;;;;;;;21.50;79.81;100999.23;104164;275;39415;-75
2023/08/18 02:41:51;;;;;;;6.10;4.60;;;;;;;21.49;80.14;101010.80;104105;276;39274;-75
2023/08/18 02:44:26;;;;;;;6.20;5.00;;;;;;;21.49;80.38;101017.21;104043;276;38965;-75
2023/08/18 02:47:00;;;;;;;5.40;4.90;;;;;;;21.46;80.70;101017.81;104061;276;38959;-74
2023/08/18 02:49:38;;;;;;;8.40;6.00;;;;;;;21.43;81.00;101016.41;104084;276;38597;-73
2023/08/18 02:52:14;;;;;;;5.70;5.20;;;;;;;21.39;81.74;101026.65;104053;276;38533;-74
2023/08/18 02:54:53;;;;;;;6.60;4.90;;;;;;;21.36;81.81;101024.73;104037;276;39563;-75
2023/08/18 02:57:28;;;;;;;9.80;5.70;;;;;;;21.35;82.20;101017.67;103962;276;174731;-75
2023/08/18 03:00:05;;;;;;;7.50;6.50;;;;;;;21.35;82.48;101011.33;104047;276;39397;-76
2023/08/18 03:02:40;;;;;;;7.10;6.40;;;;;;;21.33;82.80;101008.10;104072;276;39421;-74
2023/08/18 03:05:17;;;;;;;6.80;6.00;;;;;;;21.31;82.93;101002.92;103987;277;38643;-73
2023/08/18 03:07:51;;;;;;;10.30;5.90;;;;;;;21.28;83.10;100992.11;104093;276;38892;-75
2023/08/18 03:10:27;;;;;;;7.80;6.00;;;;;;;21.23;83.36;100980.92;104038;276;38282;-75
2023/08/18 03:13:04;;;;;;;7.50;5.70;;;;;;;21.21;83.43;100967.27;104070;276;38874;-75
2023/08/18 03:15:45;;;;;;;6.10;5.50;;;;;;;21.20;83.62;100953.17;104068;276;38286;-74
2023/08/18 03:18:19;;;;;;;7.00;5.90;;;;;;;21.18;83.81;100940.30;104137;276;39518;-74
2023/08/18 03:21:00;;;;;;;7.00;5.40;;;;;;;21.16;83.80;100933.74;103977;276;38555;-74
2023/08/18 03:23:35;;;;;;;7.40;5.50;;;;;;;21.14;83.99;100924.48;104100;276;39863;-75
2023/08/18 03:26:09;;;;;;;7.80;5.80;;;;;;;21.12;84.18;100918.23;104092;276;38237;-75
2023/08/18 03:28:43;;;;;;;6.60;5.60;;;;;;;21.08;84.20;100906.27;104034;276;38491;-75
2023/08/18 03:31:17;;;;;;;7.20;5.60;;;;;;;21.07;84.16;100902.60;104115;276;38493;-74
2023/08/18 03:33:51;;;;;;;6.60;5.50;;;;;;;21.06;84.09;100906.05;104110;276;38440;-74
2023/08/18 03:36:27;;;;;;;5.60;5.00;;;;;;;21.08;84.73;100909.11;104066;276;39682;-77
2023/08/18 03:39:02;;;;;;;5.70;5.10;;;;;;;21.08;84.83;100897.91;104051;277;39610;-75
2023/08/18 03:41:37;;;;;;;6.20;4.60;;;;;;;21.10;84.84;100891.23;104127;276;38296;-75
2023/08/18 03:44:12;;;;;;;6.00;4.90;;;;;;;21.08;84.47;100894.58;104111;276;38246;-74
2023/08/18 03:46:46;;;;;;;5.30;4.80;;;;;;;21.06;84.40;100894.73;104124;276;38243;-75
2023/08/18 03:49:20;;;;;;;5.20;4.70;;;;;;;21.05;84.51;100891.22;104129;276;38286;-75
2023/08/18 03:51:56;;;;;;;4.80;4.30;;;;;;;21.04;84.22;100889.89;104155;276;38260;-75
2023/08/18 03:54:30;;;;;;;5.90;4.50;;;;;;;21.02;84.20;100886.82;104123;276;38312;-75
2023/08/18 03:57:04;;;;;;;5.00;4.30;;;;;;;20.99;84.35;100884.04;104100;276;39086;-75
2023/08/18 03:59:40;;;;;;;5.10;4.70;;;;;;;21.00;84.79;100885.19;104089;276;38243;-74
2023/08/18 04:02:17;;;;;;;4.90;4.30;;;;;;;21.03;84.99;100883.96;104133;276;38445;-75
2023/08/18 04:04:52;;;;;;;5.40;4.60;;;;;;;21.04;85.09;100893.05;104054;276;38244;-77
2023/08/18 04:07:26;;;;;;;6.20;4.60;;;;;;;21.09;85.67;100888.84;104131;276;39443;-75
2023/08/18 04:10:00;;;;;;;5.80;4.60;;;;;;;21.11;85.39;100886.33;104085;276;38975;-75
2023/08/18 04:12:34;;;;;;;5.80;4.50;;;;;;;21.17;85.50;100890.35;104123;276;38225;-75
2023/08/18 04:15:10;;;;;;;5.20;4.70;;;;;;;21.20;85.30;100890.17;104098;276;38485;-75
2023/08/18 04:17:44;;;;;;;6.00;4.50;;;;;;;21.19;85.28;100889.86;104106;276;38738;-75
2023/08/18 04:20:23;;;;;;;7.20;4.50;;;;;;;21.25;85.48;100888.72;104037;276;38532;-74
2023/08/18 04:22:57;;;;;;;7.30;4.70;;;;;;;21.31;85.08;100882.45;104095;276;39839;-73
2023/08/18 04:25:33;;;;;;;6.70;5.10;;;;;;;21.33;85.09;100872.50;104070;276;39769;-74
2023/08/18 04:28:09;;;;;;;7.70;6.20;;;;;;;21.42;85.10;100875.91;104062;276;39805;-76
2023/08/18 04:30:45;;;;;;;8.20;6.20;;;;;;;21.46;85.23;100875.93;104070;276;39917;-75
2023/08/18 04:33:22;;;;;;;7.30;5.80;;;;;;;21.50;85.74;100872.46;104043;276;39673;-75
2023/08/18 04:36:00;;;;;;;7.10;5.10;;;;;;;21.55;85.55;100865.84;104026;276;38242;-77
2023/08/18 04:38:34;;;;;;;5.60;4.80;;;;;;;21.60;85.33;100859.44;103904;276;39546;-74
2023/08/18 04:41:09;;;;;;;7.50;5.30;;;;;;;21.69;86.02;100857.55;104034;276;38775;-75
2023/08/18 04:43:43;;;;;;;6.00;5.40;;;;;;;21.83;86.23;100851.10;104076;276;39696;-75
2023/08/18 04:46:17;;;;;;;6.00;5.50;;;;;;;21.95;85.75;100844.70;104108;276;39650;-75
2023/08/18 04:48:54;;;;;;;8.90;6.20;;;;;;;22.08;85.59;100840.13;104086;276;38406;-75
2023/08/18 04:51:28;;;;;;;6.80;5.80;;;;;;;22.35;85.86;100835.67;104092;276;38518;-75
2023/08/18 04:54:05;;;;;;;6.80;5.80;;;;;;;22.60;84.95;100826.91;104030;276;38811;-74
2023/08/18 04:56:39;;;;;;;6.20;5.60;;;;;;;22.83;83.96;100828.95;104091;276;38449;-73
2023/08/18 04:59:15;;;;;;;6.30;5.70;;;;;;;23.00;84.35;100826.46;104031;276;39445;-74
2023/08/18 05:01:53;;;;;;;5.90;5.30;;;;;;;23.09;83.72;100831.27;104070;276;38354;-75
2023/08/18 05:04:26;;;;;;;8.20;5.90;;;;;;;23.15;83.54;100826.13;104023;276;38856;-76
2023/08/18 05:07:02;;;;;;;9.90;5.20;;;;;;;23.23;83.67;100830.77;104058;276;38838;-75
2023/08/18 05:09:36;;;;;;;6.60;5.00;;;;;;;23.33;82.82;100838.16;104021;276;38243;-76
2023/08/18 05:12:10;;;;;;;5.90;5.00;;;;;;;23.50;82.34;100842.39;104079;276;38650;-75
2023/08/18 05:14:44;;;;;;;7.80;5.30;;;;;;;23.58;81.20;100840.49;104029;276;39465;-74
2023/08/18 05:17:20;;;;;;;7.80;4.90;;;;;;;23.64;81.67;100840.88;104135;276;39690;-73
2023/08/18 05:19:54;;;;;;;6.70;4.70;;;;;;;23.72;80.93;100840.42;104072;276;39422;-73
2023/08/18 05:22:28;;;;;;;5.30;4.80;;;;;;;23.74;79.31;100835.91;104112;276;38757;-74
2023/08/18 05:25:06;;;;;;;6.40;4.80;;;;;;;23.76;79.38;100833.95;104123;276;39386;-74
2023/08/18 05:27:40;;;;;;;5.60;4.70;;;;;;;23.79;79.12;100835.89;104223;264;38255;-75
2023/08/18 05:30:15;;;;;;;6.50;4.50;;;;;;;23.82;79.06;100833.95;104159;276;38834;-75
2023/08/18 05:32:48;;;;;;;5.30;4.50;;;;;;;23.86;78.91;100833.45;104096;277;38249;-74
2023/08/18 05:35:23;;;;;;;5.40;4.80;;;;;;;23.90;78.73;100830.07;104115;276;39444;-74
2023/08/18 05:37:58;;;;;;;8.80;5.70;;;;;;;24.03;78.93;100832.01;104064;276;38425;-75
2023/08/18 05:40:33;;;;;;;10.10;7.10;;;;;;;24.28;78.76;100831.39;104021;276;38692;-75
2023/08/18 05:43:07;;;;;;;10.20;7.70;;;;;;;24.61;78.01;100834.55;104081;276;39411;-75
2023/08/18 05:45:42;;;;;;;10.30;6.90;;;;;;;24.74;76.36;100833.54;104050;276;38469;-75
2023/08/18 05:48:15;;;;;;;5.90;5.30;;;;;;;24.90;75.82;100831.94;104068;276;38805;-75
2023/08/18 05:50:49;;;;;;;5.70;5.10;;;;;;;25.28;75.44;100836.35;104027;276;39128;-75
2023/08/18 05:53:24;;;;;;;6.00;4.80;;;;;;;26.05;75.92;100839.27;104048;276;38531;-75
2023/08/18 05:56:03;;;;;;;5.30;4.40;;;;;;;26.99;73.51;100832.76;103934;276;38414;-75
2023/08/18 05:58:37;;;;;;;5.40;4.10;;;;;;;27.93;71.43;100835.02;104103;276;40254;-72
2023/08/18 06:01:11;;;;;;;4.40;4.00;;;;;;;28.88;68.10;100834.98;103919;277;38455;-74
2023/08/18 06:03:52;;;;;;;5.90;4.20;;;;;;;29.71;63.93;100836.71;104125;276;39678;-73
2023/08/18 06:06:29;;;;;;;4.90;3.70;;;;;;;30.41;60.75;100830.58;104153;276;38283;-73
2023/08/18 06:09:10;;;;;;;5.50;3.90;;;;;;;31.04;58.18;100827.38;104036;276;38464;-72
2023/08/18 06:11:46;;;;;;;3.80;3.20;;;;;;;31.68;54.93;100831.30;104132;276;39671;-72
2023/08/18 06:14:21;;;;;;;4.60;3.60;;;;;;;32.19;52.57;100830.21;104094;276;38440;-72
2023/08/18 06:16:57;;;;;;;4.80;3.40;;;;;;;32.64;51.27;100824.13;104176;276;38745;-71
2023/08/18 06:19:34;;;;;;;5.50;3.20;;;;;;;33.00;48.71;100825.81;104109;276;38228;-71
2023/08/18 06:22:08;;;;;;;5.80;4.10;;;;;;;33.22;47.64;100825.98;104125;276;38565;-74
2023/08/18 06:24:44;;;;;;;4.40;3.70;;;;;;;33.49;46.46;100825.45;104080;276;39903;-74
2023/08/18 06:27:24;;;;;;;3.90;3.40;;;;;;;33.36;45.75;100826.73;104104;276;38340;-74
2023/08/18 06:30:07;;;;;;;4.50;3.30;;;;;;;33.12;44.94;100831.35;104071;276;38345;-74
2023/08/18 06:32:44;;;;;;;5.60;3.90;;;;;;;32.68;45.32;100823.45;104155;276;38724;-74
2023/08/18 06:35:23;;;;;;;4.50;3.70;;;;;;;32.17;45.76;100827.20;104015;277;40794;-73
2023/08/18 06:37:59;;;;;;;6.60;3.90;;;;;;;31.80;46.34;100828.94;104099;264;38220;-75
2023/08/18 06:40:34;;;;;;;4.10;3.70;;;;;;;31.61;47.33;100828.89;104054;276;39198;-74
2023/08/18 06:43:11;;;;;;;4.60;3.90;;;;;;;31.43;47.31;100825.90;104139;276;39664;-74
2023/08/18 06:46:01;;;;;;;4.30;3.80;;;;;;;31.25;48.53;100826.31;104092;276;39408;-74
2023/08/18 06:48:36;;;;;;;6.70;4.00;;;;;;;30.99;47.48;100827.45;104075;276;38257;-72
2023/08/18 06:51:10;;;;;;;5.50;4.10;;;;;;;30.63;48.04;100833.56;104089;276;38704;-74
2023/08/18 06:53:43;;;;;;;6.10;4.30;;;;;;;30.33;48.69;100832.41;104041;276;38375;-76
2023/08/18 06:56:19;;;;;;;4.40;3.80;;;;;;;29.99;49.82;100831.93;104064;276;38492;-74
2023/08/18 06:58:54;;;;;;;5.20;4.10;;;;;;;29.73;50.64;100831.80;104060;276;38268;-74
2023/08/18 07:01:31;;;;;;;5.10;4.20;;;;;;;29.50;50.93;100830.59;103983;276;174070;-73
2023/08/18 07:04:06;;;;;;;6.50;4.50;;;;;;;29.31;51.92;100831.44;104072;276;39395;-73
2023/08/18 07:06:42;;;;;;;6.80;4.40;;;;;;;29.23;52.78;100830.44;104130;276;39634;-73
2023/08/18 07:09:19;;;;;;;6.20;4.50;;;;;;;29.14;52.96;100828.10;104100;276;38396;-73
2023/08/18 07:11:54;;;;;;;5.20;4.70;;;;;;;28.97;52.90;100826.86;104072;276;38813;-73
2023/08/18 07:14:28;;;;;;;5.00;4.40;;;;;;;28.85;54.00;100827.73;104073;276;38299;-73
2023/08/18 07:17:06;;;;;;;6.30;4.90;;;;;;;28.80;54.16;100830.83;104142;276;38367;-74
2023/08/18 07:19:46;;;;;;;5.50;4.60;;;;;;;28.79;54.60;100835.80;104108;276;38352;-75
2023/08/18 07:22:23;;;;;;;11.40;5.10;;;;;;;28.78;54.15;100839.64;104055;276;39864;-74
2023/08/18 07:24:59;;;;;;;5.80;4.80;;;;;;;28.85;54.60;100839.48;104129;276;38239;-73
2023/08/18 07:27:32;;;;;;;6.00;4.90;;;;;;;28.97;53.99;100838.73;104151;276;38252;-73
2023/08/18 07:30:11;;;;;;;6.30;4.60;;;;;;;29.04;54.23;100839.38;104083;276;38396;-73
2023/08/18 07:32:46;;;;;;;4.90;4.30;;;;;;;29.30;54.70;100835.34;104123;276;38836;-76
2023/08/18 07:35:22;;;;;;;4.90;4.10;;;;;;;29.61;52.88;100838.55;104006;277;38649;-76
2023/08/18 07:37:56;;;;;;;4.30;3.90;;;;;;;29.84;50.24;100844.38;104139;276;38405;-73
2023/08/18 07:40:31;;;;;;;5.10;4.10;;;;;;;30.06;49.95;100844.27;104028;276;39498;-73
2023/08/18 07:43:05;;;;;;;5.60;3.90;;;;;;;30.27;49.15;100840.80;104120;276;38267;-74
2023/08/18 07:45:42;;;;;;;6.40;3.90;;;;;;;30.38;48.30;100845.34;104095;276;38323;-74
2023/08/18 07:48:22;;;;;;;4.60;3.80;;;;;;;30.45;48.24;100846.49;104144;276;38216;-75
2023/08/18 07:51:00;;;;;;;6.10;3.70;;;;;;;30.75;47.72;100847.77;103998;276;39397;-74
2023/08/18 07:53:39;;;;;;;4.90;4.00;;;;;;;31.15;46.37;100842.91;104050;276;38227;-76
2023/08/18 07:56:16;;;;;;;6.10;4.50;;;;;;;31.62;45.98;100846.27;103824;279;38613;-74
2023/08/18 07:58:52;;;;;;;5.10;4.60;;;;;;;32.12;45.33;100843.48;104100;276;39409;-73
2023/08/18 08:01:28;;;;;;;5.20;4.60;;;;;;;32.45;44.17;100845.54;104086;276;39440;-75
2023/08/18 08:04:03;;;;;;;5.80;4.40;;;;;;;32.81;42.79;100841.12;104118;276;38726;-75
2023/08/18 08:06:43;;;;;;;5.30;4.40;;;;;;;33.18;42.76;100848.84;104053;276;38930;-73
2023/08/18 08:09:21;;;;;;;4.20;3.90;;;;;;;33.76;43.00;100849.85;104150;276;38247;-74
2023/08/18 08:11:56;;;;;;;5.10;4.60;;;;;;;34.43;40.89;100852.92;104100;276;38247;-73
2023/08/18 08:14:32;;;;;;;6.10;4.90;;;;;;;34.81;39.65;100859.46;104118;276;38312;-75
2023/08/18 08:17:06;;;;;;;5.20;4.60;;;;;;;35.18;39.73;100851.98;103886;279;38262;-75
2023/08/18 08:19:41;;;;;;;6.10;5.10;;;;;;;35.74;39.24;100854.84;103995;276;39434;-74
2023/08/18 08:22:18;;;;;;;7.30;5.50;;;;;;;36.22;38.16;100855.77;104061;276;38236;-74
2023/08/18 08:24:54;;;;;;;7.80;5.10;;;;;;;36.62;36.95;100855.41;104057;276;39935;-75
2023/08/18 08:27:30;;;;;;;6.20;5.40;;;;;;;36.93;36.34;100860.54;104098;276;38253;-75
2023/08/18 08:30:05;;;;;;;8.70;5.50;;;;;;;37.23;36.22;100852.67;104120;276;39649;-75
2023/08/18 08:32:41;;;;;;;5.80;4.80;;;;;;;37.55;35.01;100852.48;104136;276;38259;-75
2023/08/18 08:35:21;;;;;;;5.00;4.60;;;;;;;37.72;34.18;100856.91;104094;276;38237;-75
2023/08/18 08:37:55;;;;;;;5.50;4.90;;;;;;;37.80;33.55;100859.17;104099;276;38491;-75
2023/08/18 08:40:30;;;;;;;5.90;4.80;;;;;;;37.91;33.17;100857.35;103933;276;38377;-75
2023/08/18 08:43:07;;;;;;;5.10;4.70;;;;;;;37.87;32.93;100858.12;104102;276;38519;-75
2023/08/18 08:45:42;;;;;;;9.40;5.90;;;;;;;37.85;32.28;100855.98;103985;276;187129;-76
2023/08/18 08:48:18;;;;;;;5.80;5.30;;;;;;;37.84;33.10;100856.38;104103;276;38373;-75
2023/08/18 08:50:58;;;;;;;6.40;4.80;;;;;;;38.13;32.64;100863.88;104054;276;38651;-75
2023/08/18 08:53:38;;;;;;;6.40;5.70;;;;;;;38.35;32.46;100862.30;104102;276;38253;-75
2023/08/18 08:56:20;;;;;;;5.70;5.00;;;;;;;38.53;32.25;100860.44;104071;276;39021;-75
2023/08/18 08:58:56;;;;;;;6.70;5.20;;;;;;;38.76;32.44;100854.00;104051;276;39885;-75
2023/08/18 09:01:34;;;;;;;5.50;4.90;;;;;;;39.04;32.32;100854.47;104060;264;38261;-75
2023/08/18 09:07:46;;;;;;;5.20;4.60;;;;;;;39.57;31.13;100847.63;104096;276;38315;-75
2023/08/18 09:10:26;;;;;;;5.70;5.20;;;;;;;39.76;30.27;100850.42;103804;278;39435;-76
2023/08/18 09:13:03;;;;;;;5.70;4.70;;;;;;;39.70;30.02;100847.87;103815;278;38387;-76
2023/08/18 09:15:38;;;;;;;6.40;4.60;;;;;;;39.77;30.38;100842.48;103839;277;38594;-75
2023/08/18 09:18:14;;;;;;;5.90;5.30;;;;;;;39.73;29.72;100840.91;103845;278;38298;-75
2023/08/18 09:20:49;;;;;;;5.00;4.50;;;;;;;39.71;30.50;100840.01;103853;278;38722;-76
2023/08/18 09:23:31;;;;;;;9.70;5.20;;;;;;;39.92;29.80;100839.65;103828;278;38350;-76
2023/08/18 09:26:06;;;;;;;5.30;4.90;;;;;;;39.96;29.45;100836.84;103822;278;39070;-76
2023/08/18 09:28:43;;;;;;;5.70;5.00;;;;;;;39.93;30.05;100833.42;103794;278;38399;-75
2023/08/18 09:31:17;;;;;;;5.90;5.00;;;;;;;39.88;29.54;100831.98;103820;278;38259;-74
2023/08/18 09:33:58;;;;;;;6.60;5.20;;;;;;;39.60;30.08;100830.30;103822;278;38538;-74
2023/08/18 09:36:35;;;;;;;5.50;5.00;;;;;;;39.40;30.63;100826.05;103766;278;38230;-75
2023/08/18 09:39:10;;;;;;;5.30;4.90;;;;;;;39.19;30.44;100827.34;103827;278;38440;-75
2023/08/18 09:41:44;;;;;;;5.90;5.40;;;;;;;38.74;30.30;100828.01;103811;278;38459;-74
2023/08/18 09:44:23;;;;;;;6.40;5.00;;;;;;;38.18;30.70;100824.88;103851;278;39474;-74
2023/08/18 09:46:59;;;;;;;5.80;4.60;;;;;;;37.75;31.15;100822.89;103829;278;38656;-75
2023/08/18 09:49:36;;;;;;;4.70;4.30;;;;;;;37.36;31.56;100817.82;103747;278;38246;-75
2023/08/18 09:52:11;;;;;;;5.00;4.50;;;;;;;36.90;31.41;100820.48;103856;278;38230;-74
2023/08/18 09:54:51;;;;;;;5.20;4.50;;;;;;;36.47;32.18;100816.68;103763;278;171401;-74
2023/08/18 09:57:38;;;;;;;6.40;4.70;;;;;;;36.14;32.93;100823.80;103898;278;38829;-76
2023/08/18 10:00:16;;;;;;;4.90;4.50;;;;;;;35.88;33.00;100814.83;103869;278;38570;-72
2023/08/18 10:02:55;;;;;;;5.10;4.70;;;;;;;35.68;33.77;100809.52;103828;278;38435;-73
2023/08/18 10:05:30;;;;;;;5.20;4.70;;;;;;;35.57;34.31;100808.63;103751;278;38264;-73
2023/08/18 10:08:07;;;;;;;6.40;5.00;;;;;;;35.35;33.10;100811.52;103714;278;174135;-72
2023/08/18 10:10:45;;;;;;;5.20;4.70;;;;;;;35.10;33.74;100803.27;103743;280;38758;-73
2023/08/18 10:13:29;;;;;;;6.80;5.00;;;;;;;34.98;33.76;100809.53;100954;278;3805599;-72
2023/08/18 10:16:15;;;;;;;6.20;5.10;;;;;;;34.73;34.06;100809.22;103837;278;38320;-74
2023/08/18 10:19:08;;;;;;;5.60;5.00;;;;;;;34.63;34.61;100802.71;103833;278;38234;-74
2023/08/18 10:21:43;;;;;;;8.20;5.20;;;;;;;34.58;34.40;100801.27;103830;278;38249;-72
2023/08/18 10:24:17;;;;;;;6.50;5.00;;;;;;;34.42;34.41;100805.89;103850;278;38477;-74
2023/08/18 10:26:57;;;;;;;6.20;4.80;;;;;;;34.31;34.55;100796.36;103859;278;38443;-75
2023/08/18 10:29:32;;;;;;;5.40;4.70;;;;;;;34.25;34.64;100798.46;103840;278;38965;-71
2023/08/18 10:32:11;;;;;;;6.60;4.70;;;;;;;34.15;34.31;100802.85;103854;278;38243;-72
2023/08/18 10:34:45;;;;;;;6.90;5.00;;;;;;;33.99;34.29;100798.63;103727;278;39502;-73
2023/08/18 10:37:25;;;;;;;5.30;4.80;;;;;;;33.79;34.24;100796.58;103856;278;38259;-73
2023/08/18 10:39:59;;;;;;;5.80;5.10;;;;;;;33.60;34.91;100800.90;103834;278;38299;-74
2023/08/18 10:42:34;;;;;;;6.20;5.00;;;;;;;33.56;35.50;100800.95;103825;278;38771;-74
2023/08/18 10:45:28;;;;;;;5.70;5.10;;;;;;;33.64;35.68;100805.30;103973;278;38303;-77
2023/08/18 10:48:05;;;;;;;5.80;5.30;;;;;;;33.63;35.13;100800.90;103941;278;38266;-77
2023/08/18 10:50:44;;;;;;;5.70;5.10;;;;;;;33.70;35.29;100804.09;104162;278;38238;-76
2023/08/18 10:53:22;;;;;;;6.60;5.00;;;;;;;33.67;34.94;100801.98;104162;278;38228;-76
2023/08/18 10:55:59;;;;;;;7.90;5.90;;;;;;;33.52;34.93;100805.59;104120;278;39414;-75
2023/08/18 10:58:34;;;;;;;6.20;5.20;;;;;;;33.32;35.34;100802.48;104084;278;38518;-75
2023/08/18 11:01:11;;;;;;;5.40;4.80;;;;;;;33.11;35.76;100800.10;103881;278;39643;-74
2023/08/18 11:03:56;;;;;;;5.20;4.80;;;;;;;32.94;36.07;100796.86;103826;278;38546;-75
2023/08/18 11:06:38;;;;;;;8.40;5.10;;;;;;;32.84;36.79;100792.11;103669;278;40252;-72
2023/08/18 11:09:13;;;;;;;6.60;5.00;;;;;;;32.78;37.57;100789.75;103859;278;39440;-74
2023/08/18 11:11:48;;;;;;;6.00;4.80;;;;;;;32.74;37.02;100788.33;103810;278;40433;-75
2023/08/18 11:14:25;;;;;;;5.20;4.80;;;;;;;32.72;36.94;100789.77;103841;278;38240;-74
2023/08/18 11:17:04;;;;;;;5.40;4.90;;;;;;;32.69;36.61;100791.13;103706;278;173853;-75
2023/08/18 11:19:39;;;;;;;5.00;4.40;;;;;;;32.71;37.10;100790.48;103838;278;38263;-73
2023/08/18 11:22:13;;;;;;;5.80;4.80;;;;;;;32.74;36.97;100787.53;103680;278;38664;-72
2023/08/18 11:24:48;;;;;;;7.30;4.70;;;;;;;32.74;37.20;100785.48;103902;278;38243;-74
2023/08/18 11:27:23;;;;;;;6.60;4.90;;;;;;;32.76;37.11;100790.85;103794;278;38530;-73
2023/08/18 11:30:01;;;;;;;6.50;5.30;;;;;;;32.75;37.09;100786.64;103858;266;39414;-74
2023/08/18 11:32:37;;;;;;;6.60;4.70;;;;;;;32.72;37.06;100790.80;103824;278;39747;-74
2023/08/18 11:35:18;;;;;;;5.30;4.80;;;;;;;32.69;36.55;100782.44;103860;278;38447;-75
2023/08/18 11:37:54;;;;;;;7.40;5.00;;;;;;;32.67;36.87;100786.17;103841;278;38692;-73
2023/08/18 11:40:38;;;;;;;5.70;5.00;;;;;;;32.66;37.02;100786.90;103717;275;39871;-74
2023/08/18 11:43:23;;;;;;;5.50;4.90;;;;;;;32.54;37.12;100781.79;103701;278;39619;-74
2023/08/18 11:45:58;;;;;;;5.40;4.70;;;;;;;32.48;37.14;100776.61;103872;278;38341;-72
2023/08/18 11:48:33;;;;;;;5.30;4.10;;;;;;;32.48;37.32;100773.38;103693;280;38613;-72
2023/08/18 11:51:19;;;;;;;10.10;4.90;;;;;;;32.56;37.29;100770.59;103880;278;38502;-74
2023/08/18 11:53:54;;;;;;;4.40;4.00;;;;;;;32.68;37.13;100768.05;103663;280;38963;-74
2023/08/18 11:56:31;;;;;;;4.80;4.30;;;;;;;32.75;36.76;100769.61;103837;278;39888;-73
2023/08/18 11:59:08;;;;;;;6.40;4.60;;;;;;;32.83;36.52;100768.91;103860;278;38079;-75
2023/08/18 12:01:42;;;;;;;7.40;4.10;;;;;;;32.82;35.85;100765.31;103795;278;38234;-75
2023/08/18 12:04:19;;;;;;;4.60;4.20;;;;;;;32.73;36.06;100765.18;103870;266;38479;-73
2023/08/18 12:06:54;;;;;;;4.70;4.30;;;;;;;32.60;36.10;100757.89;103673;278;38247;-72
2023/08/18 12:09:30;;;;;;;4.90;4.50;;;;;;;32.48;36.23;100755.67;103826;278;38350;-74